EmailTwitter


Observations de surface / Québec / CYUL (71627)

Régions: Québec | Canada | États-Unis | Europe | France | UK | Ailleurs
Station
Affichage
Infos & localisation pour CYUL (71627) | Aide pour décoder les METARs

Observations prises le 2017-09-26 à 16H00 UTC à MONTREAL INTL A, QB (CYUL)

Etat du ciel: partiellement nuageux.

Température: 28.0 Celsius

Point de rosée: 21.0 Celsius

Humidité relative: 66%

Indice Humidex: 36.

Vents: Sud à 7 km/h ou 4 noeuds.

Pression au niveau moyen de la mer: 101.55 kilopascals.

Calage altimétrique: 101.52 kilopascals ou 29.98 pouces de mercure.

Visibilité horizontale: 14.00 milles terrestres ou 22.40 kilomètres.

Hauteur du plafond: 6706 mètres ( 22000 pieds ).

Observation METAR:

CYUL 261600Z 17004KT 140V210 14SM BKN220 28/21 A2998 RMK CI6 SLP155 DENSITY ALT

1600FT=